sensor_id;sensor_type;location;lat;lon;timestamp;temperature;humidity
4725;DHT22;2376;53.544;10.226;2022-08-21T00:00:23;16.70;99.90
4725;DHT22;2376;53.544;10.226;2022-08-21T00:02:53;16.60;99.90
4725;DHT22;2376;53.544;10.226;2022-08-21T00:05:21;16.70;99.90
4725;DHT22;2376;53.544;10.226;2022-08-21T00:07:48;16.60;99.90
4725;DHT22;2376;53.544;10.226;2022-08-21T00:10:17;16.60;99.90
4725;DHT22;2376;53.544;10.226;2022-08-21T00:12:45;16.50;99.90
4725;DHT22;2376;53.544;10.226;2022-08-21T00:15:13;16.40;99.90
4725;DHT22;2376;53.544;10.226;2022-08-21T00:17:40;16.40;99.90
4725;DHT22;2376;53.544;10.226;2022-08-21T00:20:09;16.40;99.90
4725;DHT22;2376;53.544;10.226;2022-08-21T00:22:36;16.30;99.90
4725;DHT22;2376;53.544;10.226;2022-08-21T00:25:05;16.30;99.90
4725;DHT22;2376;53.544;10.226;2022-08-21T00:27:33;16.40;99.90
4725;DHT22;2376;53.544;10.226;2022-08-21T00:30:00;16.40;99.90
4725;DHT22;2376;53.544;10.226;2022-08-21T00:32:27;16.40;99.90
4725;DHT22;2376;53.544;10.226;2022-08-21T00:34:54;16.30;99.90
4725;DHT22;2376;53.544;10.226;2022-08-21T00:37:21;16.30;99.90
4725;DHT22;2376;53.544;10.226;2022-08-21T00:39:48;16.30;99.90
4725;DHT22;2376;53.544;10.226;2022-08-21T00:42:16;16.30;99.90
4725;DHT22;2376;53.544;10.226;2022-08-21T00:44:45;16.30;99.90
4725;DHT22;2376;53.544;10.226;2022-08-21T00:47:12;16.30;99.90
4725;DHT22;2376;53.544;10.226;2022-08-21T00:49:40;16.20;99.90
4725;DHT22;2376;53.544;10.226;2022-08-21T00:52:09;16.20;99.90
4725;DHT22;2376;53.544;10.226;2022-08-21T00:54:37;16.20;99.90
4725;DHT22;2376;53.544;10.226;2022-08-21T00:57:10;16.20;99.90
4725;DHT22;2376;53.544;10.226;2022-08-21T00:59:38;16.00;99.90
4725;DHT22;2376;53.544;10.226;2022-08-21T01:02:08;16.00;99.90
4725;DHT22;2376;53.544;10.226;2022-08-21T01:04:35;16.00;99.90
4725;DHT22;2376;53.544;10.226;2022-08-21T01:07:03;15.90;99.90
4725;DHT22;2376;53.544;10.226;2022-08-21T01:09:29;15.90;99.90
4725;DHT22;2376;53.544;10.226;2022-08-21T01:11:56;15.90;99.90
4725;DHT22;2376;53.544;10.226;2022-08-21T01:14:24;15.90;99.90
4725;DHT22;2376;53.544;10.226;2022-08-21T01:16:52;15.90;99.90
4725;DHT22;2376;53.544;10.226;2022-08-21T01:19:21;15.90;99.90
4725;DHT22;2376;53.544;10.226;2022-08-21T01:21:49;15.90;99.90
4725;DHT22;2376;53.544;10.226;2022-08-21T01:24:16;15.90;99.90
4725;DHT22;2376;53.544;10.226;2022-08-21T01:26:43;15.90;99.90
4725;DHT22;2376;53.544;10.226;2022-08-21T01:29:15;15.80;99.90
4725;DHT22;2376;53.544;10.226;2022-08-21T01:31:43;15.90;99.90
4725;DHT22;2376;53.544;10.226;2022-08-21T01:34:10;15.80;99.90
4725;DHT22;2376;53.544;10.226;2022-08-21T01:36:37;15.80;99.90
4725;DHT22;2376;53.544;10.226;2022-08-21T01:39:05;15.80;99.90
4725;DHT22;2376;53.544;10.226;2022-08-21T01:41:32;15.80;99.90
4725;DHT22;2376;53.544;10.226;2022-08-21T01:43:59;15.80;99.90
4725;DHT22;2376;53.544;10.226;2022-08-21T01:46:26;15.80;99.90
4725;DHT22;2376;53.544;10.226;2022-08-21T01:48:53;15.80;99.90
4725;DHT22;2376;53.544;10.226;2022-08-21T01:51:19;15.80;99.90
4725;DHT22;2376;53.544;10.226;2022-08-21T01:53:46;15.80;99.90
4725;DHT22;2376;53.544;10.226;2022-08-21T01:56:15;15.80;99.90
4725;DHT22;2376;53.544;10.226;2022-08-21T01:58:44;15.80;99.90
4725;DHT22;2376;53.544;10.226;2022-08-21T02:01:11;15.70;99.90
4725;DHT22;2376;53.544;10.226;2022-08-21T02:03:39;15.80;99.90
4725;DHT22;2376;53.544;10.226;2022-08-21T02:06:11;15.70;99.90
4725;DHT22;2376;53.544;10.226;2022-08-21T02:08:38;15.70;99.90
4725;DHT22;2376;53.544;10.226;2022-08-21T02:11:05;15.70;99.90
4725;DHT22;2376;53.544;10.226;2022-08-21T02:13:33;15.70;99.90
4725;DHT22;2376;53.544;10.226;2022-08-21T02:16:00;15.70;99.90
4725;DHT22;2376;53.544;10.226;2022-08-21T02:18:27;15.60;99.90
4725;DHT22;2376;53.544;10.226;2022-08-21T02:20:55;15.60;99.90
4725;DHT22;2376;53.544;10.226;2022-08-21T02:23:22;15.50;99.90
4725;DHT22;2376;53.544;10.226;2022-08-21T02:25:49;15.40;99.90
4725;DHT22;2376;53.544;10.226;2022-08-21T02:28:16;15.40;99.90
4725;DHT22;2376;53.544;10.226;2022-08-21T02:30:46;15.40;99.90
4725;DHT22;2376;53.544;10.226;2022-08-21T02:33:13;15.40;99.90
4725;DHT22;2376;53.544;10.226;2022-08-21T02:35:42;15.40;99.90
4725;DHT22;2376;53.544;10.226;2022-08-21T02:38:10;15.40;99.90
4725;DHT22;2376;53.544;10.226;2022-08-21T02:40:40;15.40;99.90
4725;DHT22;2376;53.544;10.226;2022-08-21T02:43:07;15.40;99.90
4725;DHT22;2376;53.544;10.226;2022-08-21T02:45:35;15.40;99.90
4725;DHT22;2376;53.544;10.226;2022-08-21T02:48:05;15.40;99.90
4725;DHT22;2376;53.544;10.226;2022-08-21T02:50:34;15.30;99.90
4725;DHT22;2376;53.544;10.226;2022-08-21T02:53:01;15.30;99.90
4725;DHT22;2376;53.544;10.226;2022-08-21T02:55:30;15.20;99.90
4725;DHT22;2376;53.544;10.226;2022-08-21T02:57:58;15.20;99.90
4725;DHT22;2376;53.544;10.226;2022-08-21T03:00:27;15.20;99.90
4725;DHT22;2376;53.544;10.226;2022-08-21T03:02:55;15.20;99.90
4725;DHT22;2376;53.544;10.226;2022-08-21T03:05:24;15.10;99.90
4725;DHT22;2376;53.544;10.226;2022-08-21T03:07:51;15.10;99.90
4725;DHT22;2376;53.544;10.226;2022-08-21T03:10:19;15.10;99.90
4725;DHT22;2376;53.544;10.226;2022-08-21T03:12:46;15.20;99.90
4725;DHT22;2376;53.544;10.226;2022-08-21T03:15:15;15.20;99.90
4725;DHT22;2376;53.544;10.226;2022-08-21T03:17:43;15.20;99.90
4725;DHT22;2376;53.544;10.226;2022-08-21T03:20:10;15.30;99.90
4725;DHT22;2376;53.544;10.226;2022-08-21T03:22:39;15.30;99.90
4725;DHT22;2376;53.544;10.226;2022-08-21T03:25:07;15.30;99.90
4725;DHT22;2376;53.544;10.226;2022-08-21T03:27:34;15.20;99.90
4725;DHT22;2376;53.544;10.226;2022-08-21T03:30:03;15.20;99.90
4725;DHT22;2376;53.544;10.226;2022-08-21T03:32:30;15.10;99.90
4725;DHT22;2376;53.544;10.226;2022-08-21T03:34:57;15.10;99.90
4725;DHT22;2376;53.544;10.226;2022-08-21T03:37:26;15.10;99.90
4725;DHT22;2376;53.544;10.226;2022-08-21T03:39:54;15.10;99.90
4725;DHT22;2376;53.544;10.226;2022-08-21T03:42:21;15.00;99.90
4725;DHT22;2376;53.544;10.226;2022-08-21T03:44:48;14.90;99.90
4725;DHT22;2376;53.544;10.226;2022-08-21T03:47:14;14.80;99.90
4725;DHT22;2376;53.544;10.226;2022-08-21T03:49:41;14.90;99.90
4725;DHT22;2376;53.544;10.226;2022-08-21T03:52:08;14.80;99.90
4725;DHT22;2376;53.544;10.226;2022-08-21T03:54:34;14.80;99.90
4725;DHT22;2376;53.544;10.226;2022-08-21T03:57:02;14.70;99.90
4725;DHT22;2376;53.544;10.226;2022-08-21T03:59:29;14.60;99.90
4725;DHT22;2376;53.544;10.226;2022-08-21T04:01:58;14.60;99.90
4725;DHT22;2376;53.544;10.226;2022-08-21T04:04:27;14.60;99.90
4725;DHT22;2376;53.544;10.226;2022-08-21T04:06:55;14.60;99.90
4725;DHT22;2376;53.544;10.226;2022-08-21T04:09:22;14.60;99.90
4725;DHT22;2376;53.544;10.226;2022-08-21T04:11:49;14.60;99.90
4725;DHT22;2376;53.544;10.226;2022-08-21T04:14:18;14.50;99.90
4725;DHT22;2376;53.544;10.226;2022-08-21T04:16:45;14.50;99.90
4725;DHT22;2376;53.544;10.226;2022-08-21T04:19:14;14.40;99.90
4725;DHT22;2376;53.544;10.226;2022-08-21T04:21:41;14.40;99.90
4725;DHT22;2376;53.544;10.226;2022-08-21T04:24:09;14.40;99.90
4725;DHT22;2376;53.544;10.226;2022-08-21T04:26:38;14.30;99.90
4725;DHT22;2376;53.544;10.226;2022-08-21T04:29:04;14.30;99.90
4725;DHT22;2376;53.544;10.226;2022-08-21T04:31:34;14.20;99.90
4725;DHT22;2376;53.544;10.226;2022-08-21T04:34:02;14.20;99.90
4725;DHT22;2376;53.544;10.226;2022-08-21T04:36:30;14.20;99.90
4725;DHT22;2376;53.544;10.226;2022-08-21T04:38:57;14.30;99.90
4725;DHT22;2376;53.544;10.226;2022-08-21T04:41:24;14.20;99.90
4725;DHT22;2376;53.544;10.226;2022-08-21T04:43:51;14.20;99.90
4725;DHT22;2376;53.544;10.226;2022-08-21T04:46:20;14.20;99.90
4725;DHT22;2376;53.544;10.226;2022-08-21T04:48:50;14.20;99.90
4725;DHT22;2376;53.544;10.226;2022-08-21T04:51:21;14.30;99.90
4725;DHT22;2376;53.544;10.226;2022-08-21T04:53:51;14.30;99.90
4725;DHT22;2376;53.544;10.226;2022-08-21T04:56:25;14.30;99.90
4725;DHT22;2376;53.544;10.226;2022-08-21T04:58:56;14.40;99.90
4725;DHT22;2376;53.544;10.226;2022-08-21T05:01:25;14.50;99.90
4725;DHT22;2376;53.544;10.226;2022-08-21T05:03:57;14.60;99.90
4725;DHT22;2376;53.544;10.226;2022-08-21T05:06:25;14.60;99.90
4725;DHT22;2376;53.544;10.226;2022-08-21T05:08:55;14.60;99.90
4725;DHT22;2376;53.544;10.226;2022-08-21T05:11:21;14.60;99.90
4725;DHT22;2376;53.544;10.226;2022-08-21T05:13:49;14.60;99.90
4725;DHT22;2376;53.544;10.226;2022-08-21T05:16:16;14.70;99.90
4725;DHT22;2376;53.544;10.226;2022-08-21T05:18:43;14.70;99.90
4725;DHT22;2376;53.544;10.226;2022-08-21T05:21:11;14.70;99.90
4725;DHT22;2376;53.544;10.226;2022-08-21T05:23:39;14.80;99.90
4725;DHT22;2376;53.544;10.226;2022-08-21T05:26:06;14.90;99.90
4725;DHT22;2376;53.544;10.226;2022-08-21T05:28:33;14.90;99.90
4725;DHT22;2376;53.544;10.226;2022-08-21T05:31:01;14.90;99.90
4725;DHT22;2376;53.544;10.226;2022-08-21T05:33:28;14.90;99.90
4725;DHT22;2376;53.544;10.226;2022-08-21T05:35:55;14.80;99.90
4725;DHT22;2376;53.544;10.226;2022-08-21T05:38:25;14.80;99.90
4725;DHT22;2376;53.544;10.226;2022-08-21T05:40:53;14.90;99.90
4725;DHT22;2376;53.544;10.226;2022-08-21T05:43:21;14.90;99.90
4725;DHT22;2376;53.544;10.226;2022-08-21T05:45:49;14.90;99.90
4725;DHT22;2376;53.544;10.226;2022-08-21T05:48:17;15.00;99.90
4725;DHT22;2376;53.544;10.226;2022-08-21T05:50:46;15.10;99.90
4725;DHT22;2376;53.544;10.226;2022-08-21T05:53:15;15.10;99.90
4725;DHT22;2376;53.544;10.226;2022-08-21T05:55:44;15.20;99.90
4725;DHT22;2376;53.544;10.226;2022-08-21T05:58:11;15.20;99.90
4725;DHT22;2376;53.544;10.226;2022-08-21T06:00:38;15.30;99.90
4725;DHT22;2376;53.544;10.226;2022-08-21T06:03:11;15.40;99.90
4725;DHT22;2376;53.544;10.226;2022-08-21T06:05:37;15.40;99.90
4725;DHT22;2376;53.544;10.226;2022-08-21T06:08:04;15.50;99.90
4725;DHT22;2376;53.544;10.226;2022-08-21T06:10:31;15.50;99.90
4725;DHT22;2376;53.544;10.226;2022-08-21T06:12:59;15.60;99.90
4725;DHT22;2376;53.544;10.226;2022-08-21T06:15:27;15.60;99.90
4725;DHT22;2376;53.544;10.226;2022-08-21T06:17:54;15.70;99.90
4725;DHT22;2376;53.544;10.226;2022-08-21T06:20:22;15.80;99.90
4725;DHT22;2376;53.544;10.226;2022-08-21T06:22:49;16.00;99.90
4725;DHT22;2376;53.544;10.226;2022-08-21T06:25:16;15.90;99.90
4725;DHT22;2376;53.544;10.226;2022-08-21T06:27:43;16.00;99.90
4725;DHT22;2376;53.544;10.226;2022-08-21T06:30:12;16.00;99.90
4725;DHT22;2376;53.544;10.226;2022-08-21T06:32:39;16.10;99.90
4725;DHT22;2376;53.544;10.226;2022-08-21T06:35:06;16.20;99.90
4725;DHT22;2376;53.544;10.226;2022-08-21T06:37:36;16.30;99.90
4725;DHT22;2376;53.544;10.226;2022-08-21T06:40:05;16.30;99.90
4725;DHT22;2376;53.544;10.226;2022-08-21T06:42:35;16.40;99.90
4725;DHT22;2376;53.544;10.226;2022-08-21T06:45:02;16.50;99.90
4725;DHT22;2376;53.544;10.226;2022-08-21T06:47:30;16.60;99.90
4725;DHT22;2376;53.544;10.226;2022-08-21T06:49:57;16.70;99.90
4725;DHT22;2376;53.544;10.226;2022-08-21T06:52:24;16.80;99.90
4725;DHT22;2376;53.544;10.226;2022-08-21T06:54:50;16.80;99.90
4725;DHT22;2376;53.544;10.226;2022-08-21T06:57:19;16.90;99.90
4725;DHT22;2376;53.544;10.226;2022-08-21T06:59:47;16.90;99.90
4725;DHT22;2376;53.544;10.226;2022-08-21T07:02:14;17.00;99.90
4725;DHT22;2376;53.544;10.226;2022-08-21T07:04:42;17.10;99.90
4725;DHT22;2376;53.544;10.226;2022-08-21T07:07:09;17.10;99.90
4725;DHT22;2376;53.544;10.226;2022-08-21T07:09:36;17.10;99.90
4725;DHT22;2376;53.544;10.226;2022-08-21T07:12:03;17.30;99.90
4725;DHT22;2376;53.544;10.226;2022-08-21T07:14:31;17.20;99.90
4725;DHT22;2376;53.544;10.226;2022-08-21T07:17:00;17.30;99.90
4725;DHT22;2376;53.544;10.226;2022-08-21T07:19:27;17.30;99.90
4725;DHT22;2376;53.544;10.226;2022-08-21T07:21:58;17.40;99.90
4725;DHT22;2376;53.544;10.226;2022-08-21T07:24:26;17.40;99.90
4725;DHT22;2376;53.544;10.226;2022-08-21T07:26:55;17.50;99.90
4725;DHT22;2376;53.544;10.226;2022-08-21T07:29:22;17.50;99.90
4725;DHT22;2376;53.544;10.226;2022-08-21T07:31:49;17.60;99.90
4725;DHT22;2376;53.544;10.226;2022-08-21T07:34:16;17.70;99.90
4725;DHT22;2376;53.544;10.226;2022-08-21T07:36:43;17.70;99.90
4725;DHT22;2376;53.544;10.226;2022-08-21T07:39:12;17.80;99.90
4725;DHT22;2376;53.544;10.226;2022-08-21T07:41:38;18.00;99.90
4725;DHT22;2376;53.544;10.226;2022-08-21T07:44:05;18.00;99.90
4725;DHT22;2376;53.544;10.226;2022-08-21T07:46:33;18.10;99.90
4725;DHT22;2376;53.544;10.226;2022-08-21T07:49:00;18.20;99.90
4725;DHT22;2376;53.544;10.226;2022-08-21T07:51:28;18.30;99.90
4725;DHT22;2376;53.544;10.226;2022-08-21T07:53:57;18.40;99.90
4725;DHT22;2376;53.544;10.226;2022-08-21T07:56:26;18.60;99.90
4725;DHT22;2376;53.544;10.226;2022-08-21T07:58:54;18.60;99.90
4725;DHT22;2376;53.544;10.226;2022-08-21T08:01:23;18.70;99.90
4725;DHT22;2376;53.544;10.226;2022-08-21T08:03:50;18.80;99.90
4725;DHT22;2376;53.544;10.226;2022-08-21T08:06:17;18.90;99.90
4725;DHT22;2376;53.544;10.226;2022-08-21T08:08:45;19.00;99.90
4725;DHT22;2376;53.544;10.226;2022-08-21T08:11:12;19.20;99.90
4725;DHT22;2376;53.544;10.226;2022-08-21T08:13:43;19.30;99.90
4725;DHT22;2376;53.544;10.226;2022-08-21T08:16:11;19.40;99.90
4725;DHT22;2376;53.544;10.226;2022-08-21T08:18:38;19.60;99.90
4725;DHT22;2376;53.544;10.226;2022-08-21T08:21:05;19.80;99.90
4725;DHT22;2376;53.544;10.226;2022-08-21T08:23:33;19.90;99.90
4725;DHT22;2376;53.544;10.226;2022-08-21T08:26:00;20.00;99.90
4725;DHT22;2376;53.544;10.226;2022-08-21T08:28:28;20.20;99.90
4725;DHT22;2376;53.544;10.226;2022-08-21T08:30:59;20.30;99.90
4725;DHT22;2376;53.544;10.226;2022-08-21T08:33:26;20.40;99.90
4725;DHT22;2376;53.544;10.226;2022-08-21T08:35:54;20.50;99.90
4725;DHT22;2376;53.544;10.226;2022-08-21T08:38:22;20.70;99.90
4725;DHT22;2376;53.544;10.226;2022-08-21T08:40:55;20.90;99.90
4725;DHT22;2376;53.544;10.226;2022-08-21T08:43:25;21.00;99.90
4725;DHT22;2376;53.544;10.226;2022-08-21T08:45:55;21.10;99.90
4725;DHT22;2376;53.544;10.226;2022-08-21T08:48:45;21.20;99.90
4725;DHT22;2376;53.544;10.226;2022-08-21T08:51:18;21.30;99.90
4725;DHT22;2376;53.544;10.226;2022-08-21T08:53:51;21.40;99.90
4725;DHT22;2376;53.544;10.226;2022-08-21T08:56:22;21.60;99.90
4725;DHT22;2376;53.544;10.226;2022-08-21T08:59:02;21.60;99.90
4725;DHT22;2376;53.544;10.226;2022-08-21T09:01:34;21.70;99.90
4725;DHT22;2376;53.544;10.226;2022-08-21T09:04:02;21.70;99.90
4725;DHT22;2376;53.544;10.226;2022-08-21T09:06:45;21.60;99.90
4725;DHT22;2376;53.544;10.226;2022-08-21T09:09:25;21.70;99.90
4725;DHT22;2376;53.544;10.226;2022-08-21T09:12:02;21.70;99.90
4725;DHT22;2376;53.544;10.226;2022-08-21T09:14:41;21.80;99.90
4725;DHT22;2376;53.544;10.226;2022-08-21T09:17:19;21.90;99.90
4725;DHT22;2376;53.544;10.226;2022-08-21T09:19:59;22.00;99.90
4725;DHT22;2376;53.544;10.226;2022-08-21T09:22:37;22.10;99.90
4725;DHT22;2376;53.544;10.226;2022-08-21T09:25:14;22.20;99.90
4725;DHT22;2376;53.544;10.226;2022-08-21T09:27:43;22.30;99.90
4725;DHT22;2376;53.544;10.226;2022-08-21T09:30:11;22.40;99.90
4725;DHT22;2376;53.544;10.226;2022-08-21T09:32:39;22.50;99.90
4725;DHT22;2376;53.544;10.226;2022-08-21T09:35:11;22.50;99.90
4725;DHT22;2376;53.544;10.226;2022-08-21T09:37:53;22.60;99.90
4725;DHT22;2376;53.544;10.226;2022-08-21T09:40:30;22.70;99.90
4725;DHT22;2376;53.544;10.226;2022-08-21T09:43:00;22.80;99.90
4725;DHT22;2376;53.544;10.226;2022-08-21T09:45:28;22.90;99.90
4725;DHT22;2376;53.544;10.226;2022-08-21T09:48:07;23.00;99.90
4725;DHT22;2376;53.544;10.226;2022-08-21T09:50:44;23.10;99.90
4725;DHT22;2376;53.544;10.226;2022-08-21T09:53:19;23.20;99.90
4725;DHT22;2376;53.544;10.226;2022-08-21T09:55:51;23.30;99.90
4725;DHT22;2376;53.544;10.226;2022-08-21T09:58:38;23.40;99.90
4725;DHT22;2376;53.544;10.226;2022-08-21T10:01:06;23.50;99.90
4725;DHT22;2376;53.544;10.226;2022-08-21T10:03:35;23.70;99.90
4725;DHT22;2376;53.544;10.226;2022-08-21T10:06:05;23.80;99.90
4725;DHT22;2376;53.544;10.226;2022-08-21T10:08:35;23.90;99.90
4725;DHT22;2376;53.544;10.226;2022-08-21T10:11:05;24.00;99.90
4725;DHT22;2376;53.544;10.226;2022-08-21T10:13:45;24.10;99.90
4725;DHT22;2376;53.544;10.226;2022-08-21T10:16:25;24.30;99.90
4725;DHT22;2376;53.544;10.226;2022-08-21T10:19:02;24.40;99.90
4725;DHT22;2376;53.544;10.226;2022-08-21T10:21:38;24.50;99.90
4725;DHT22;2376;53.544;10.226;2022-08-21T10:24:12;24.60;99.90
4725;DHT22;2376;53.544;10.226;2022-08-21T10:26:50;24.70;99.90
4725;DHT22;2376;53.544;10.226;2022-08-21T10:29:31;24.70;99.90
4725;DHT22;2376;53.544;10.226;2022-08-21T10:32:06;24.70;99.90
4725;DHT22;2376;53.544;10.226;2022-08-21T10:34:47;24.70;99.60
4725;DHT22;2376;53.544;10.226;2022-08-21T10:37:31;24.60;98.90
4725;DHT22;2376;53.544;10.226;2022-08-21T10:40:10;24.70;99.50
4725;DHT22;2376;53.544;10.226;2022-08-21T10:42:50;24.60;98.60
4725;DHT22;2376;53.544;10.226;2022-08-21T10:45:32;24.50;98.70
4725;DHT22;2376;53.544;10.226;2022-08-21T10:48:05;24.60;98.90
4725;DHT22;2376;53.544;10.226;2022-08-21T10:50:38;24.60;98.50
4725;DHT22;2376;53.544;10.226;2022-08-21T10:53:32;24.50;98.30
4725;DHT22;2376;53.544;10.226;2022-08-21T10:56:12;24.40;98.10
4725;DHT22;2376;53.544;10.226;2022-08-21T10:58:45;24.40;97.60
4725;DHT22;2376;53.544;10.226;2022-08-21T11:01:24;24.30;97.10
4725;DHT22;2376;53.544;10.226;2022-08-21T11:04:07;24.30;97.20
4725;DHT22;2376;53.544;10.226;2022-08-21T11:06:38;24.20;97.20
4725;DHT22;2376;53.544;10.226;2022-08-21T11:09:15;24.30;97.70
4725;DHT22;2376;53.544;10.226;2022-08-21T11:11:46;24.40;97.70
4725;DHT22;2376;53.544;10.226;2022-08-21T11:14:22;24.40;96.30
4725;DHT22;2376;53.544;10.226;2022-08-21T11:16:57;24.40;96.60
4725;DHT22;2376;53.544;10.226;2022-08-21T11:19:30;24.60;96.60
4725;DHT22;2376;53.544;10.226;2022-08-21T11:22:02;24.60;95.90
4725;DHT22;2376;53.544;10.226;2022-08-21T11:24:40;24.70;95.20
4725;DHT22;2376;53.544;10.226;2022-08-21T11:27:17;24.80;94.20
4725;DHT22;2376;53.544;10.226;2022-08-21T11:29:49;25.00;94.00
4725;DHT22;2376;53.544;10.226;2022-08-21T11:32:31;25.20;93.90
4725;DHT22;2376;53.544;10.226;2022-08-21T11:35:05;25.40;93.70
4725;DHT22;2376;53.544;10.226;2022-08-21T11:37:49;25.40;92.80
4725;DHT22;2376;53.544;10.226;2022-08-21T11:40:36;25.50;92.50
4725;DHT22;2376;53.544;10.226;2022-08-21T11:43:10;25.40;90.90
4725;DHT22;2376;53.544;10.226;2022-08-21T11:45:43;25.50;90.10
4725;DHT22;2376;53.544;10.226;2022-08-21T11:48:18;25.40;90.00
4725;DHT22;2376;53.544;10.226;2022-08-21T11:50:52;25.40;87.90
4725;DHT22;2376;53.544;10.226;2022-08-21T11:53:23;25.30;87.40
4725;DHT22;2376;53.544;10.226;2022-08-21T11:55:59;25.30;86.40
4725;DHT22;2376;53.544;10.226;2022-08-21T11:58:33;25.40;85.80
4725;DHT22;2376;53.544;10.226;2022-08-21T12:01:05;25.40;83.90
4725;DHT22;2376;53.544;10.226;2022-08-21T12:03:36;25.40;82.80
4725;DHT22;2376;53.544;10.226;2022-08-21T12:06:07;25.50;81.80
4725;DHT22;2376;53.544;10.226;2022-08-21T12:08:36;25.60;82.50
4725;DHT22;2376;53.544;10.226;2022-08-21T12:11:08;25.50;81.90
4725;DHT22;2376;53.544;10.226;2022-08-21T12:13:38;25.50;81.80
4725;DHT22;2376;53.544;10.226;2022-08-21T12:16:07;25.40;79.60
4725;DHT22;2376;53.544;10.226;2022-08-21T12:18:34;25.50;79.30
4725;DHT22;2376;53.544;10.226;2022-08-21T12:21:17;25.40;79.20
4725;DHT22;2376;53.544;10.226;2022-08-21T12:23:48;25.30;79.50
4725;DHT22;2376;53.544;10.226;2022-08-21T12:26:24;25.30;79.80
4725;DHT22;2376;53.544;10.226;2022-08-21T12:29:04;25.40;79.80
4725;DHT22;2376;53.544;10.226;2022-08-21T12:31:52;25.40;77.50
4725;DHT22;2376;53.544;10.226;2022-08-21T12:34:22;25.40;78.50
4725;DHT22;2376;53.544;10.226;2022-08-21T12:36:54;25.40;76.20
4725;DHT22;2376;53.544;10.226;2022-08-21T12:39:27;25.40;76.10
4725;DHT22;2376;53.544;10.226;2022-08-21T12:42:00;25.60;76.40
4725;DHT22;2376;53.544;10.226;2022-08-21T12:44:39;25.70;75.90
4725;DHT22;2376;53.544;10.226;2022-08-21T12:47:15;25.70;73.90
4725;DHT22;2376;53.544;10.226;2022-08-21T12:49:53;26.00;74.70
4725;DHT22;2376;53.544;10.226;2022-08-21T12:52:27;26.00;75.20
4725;DHT22;2376;53.544;10.226;2022-08-21T12:54:55;26.10;74.80
4725;DHT22;2376;53.544;10.226;2022-08-21T12:57:26;26.20;74.80
4725;DHT22;2376;53.544;10.226;2022-08-21T12:59:57;26.30;71.00
4725;DHT22;2376;53.544;10.226;2022-08-21T13:02:31;26.30;69.70
4725;DHT22;2376;53.544;10.226;2022-08-21T13:05:03;26.30;69.30
4725;DHT22;2376;53.544;10.226;2022-08-21T13:07:33;26.40;69.30
4725;DHT22;2376;53.544;10.226;2022-08-21T13:10:04;26.50;70.50
4725;DHT22;2376;53.544;10.226;2022-08-21T13:12:33;26.40;68.60
4725;DHT22;2376;53.544;10.226;2022-08-21T13:15:05;26.40;69.10
4725;DHT22;2376;53.544;10.226;2022-08-21T13:17:35;26.40;69.80
4725;DHT22;2376;53.544;10.226;2022-08-21T13:20:07;26.40;69.30
4725;DHT22;2376;53.544;10.226;2022-08-21T13:22:40;26.30;68.20
4725;DHT22;2376;53.544;10.226;2022-08-21T13:25:10;26.40;69.80
4725;DHT22;2376;53.544;10.226;2022-08-21T13:27:41;26.40;69.00
4725;DHT22;2376;53.544;10.226;2022-08-21T13:30:12;26.40;67.70
4725;DHT22;2376;53.544;10.226;2022-08-21T13:32:41;26.30;65.60
4725;DHT22;2376;53.544;10.226;2022-08-21T13:35:15;26.40;67.20
4725;DHT22;2376;53.544;10.226;2022-08-21T13:37:46;26.40;67.10
4725;DHT22;2376;53.544;10.226;2022-08-21T13:40:17;26.40;66.00
4725;DHT22;2376;53.544;10.226;2022-08-21T13:42:48;26.40;66.40
4725;DHT22;2376;53.544;10.226;2022-08-21T13:45:20;26.40;68.00
4725;DHT22;2376;53.544;10.226;2022-08-21T13:47:48;26.50;68.00
4725;DHT22;2376;53.544;10.226;2022-08-21T13:50:16;26.40;67.80
4725;DHT22;2376;53.544;10.226;2022-08-21T13:52:56;26.40;66.30
4725;DHT22;2376;53.544;10.226;2022-08-21T13:55:24;26.40;67.00
4725;DHT22;2376;53.544;10.226;2022-08-21T13:58:00;26.40;67.60
4725;DHT22;2376;53.544;10.226;2022-08-21T14:00:30;26.50;67.30
4725;DHT22;2376;53.544;10.226;2022-08-21T14:03:04;26.60;67.00
4725;DHT22;2376;53.544;10.226;2022-08-21T14:05:32;26.50;66.10
4725;DHT22;2376;53.544;10.226;2022-08-21T14:08:03;26.50;64.20
4725;DHT22;2376;53.544;10.226;2022-08-21T14:10:31;26.60;64.10
4725;DHT22;2376;53.544;10.226;2022-08-21T14:13:01;26.60;62.50
4725;DHT22;2376;53.544;10.226;2022-08-21T14:15:31;26.60;63.10
4725;DHT22;2376;53.544;10.226;2022-08-21T14:18:07;26.50;59.90
4725;DHT22;2376;53.544;10.226;2022-08-21T14:20:36;26.50;60.10
4725;DHT22;2376;53.544;10.226;2022-08-21T14:23:03;26.40;62.30
4725;DHT22;2376;53.544;10.226;2022-08-21T14:25:37;26.40;62.90
4725;DHT22;2376;53.544;10.226;2022-08-21T14:28:19;26.60;64.30
4725;DHT22;2376;53.544;10.226;2022-08-21T14:30:50;26.60;61.70
4725;DHT22;2376;53.544;10.226;2022-08-21T14:33:23;26.70;61.60
4725;DHT22;2376;53.544;10.226;2022-08-21T14:35:51;26.70;62.60
4725;DHT22;2376;53.544;10.226;2022-08-21T14:38:20;26.90;63.10
4725;DHT22;2376;53.544;10.226;2022-08-21T14:40:50;26.80;61.70
4725;DHT22;2376;53.544;10.226;2022-08-21T14:43:19;26.90;60.70
4725;DHT22;2376;53.544;10.226;2022-08-21T14:45:46;26.90;61.50
4725;DHT22;2376;53.544;10.226;2022-08-21T14:48:14;26.80;59.20
4725;DHT22;2376;53.544;10.226;2022-08-21T14:50:41;26.90;59.60
4725;DHT22;2376;53.544;10.226;2022-08-21T14:53:10;27.00;59.30
4725;DHT22;2376;53.544;10.226;2022-08-21T14:55:39;26.90;56.70
4725;DHT22;2376;53.544;10.226;2022-08-21T14:58:25;26.80;57.60
4725;DHT22;2376;53.544;10.226;2022-08-21T15:00:54;26.80;58.90
4725;DHT22;2376;53.544;10.226;2022-08-21T15:03:23;26.90;58.40
4725;DHT22;2376;53.544;10.226;2022-08-21T15:05:51;26.90;57.70
4725;DHT22;2376;53.544;10.226;2022-08-21T15:08:18;26.90;57.40
4725;DHT22;2376;53.544;10.226;2022-08-21T15:10:46;26.80;56.40
4725;DHT22;2376;53.544;10.226;2022-08-21T15:13:13;26.80;56.70
4725;DHT22;2376;53.544;10.226;2022-08-21T15:15:44;26.80;57.00
4725;DHT22;2376;53.544;10.226;2022-08-21T15:18:13;26.80;56.90
4725;DHT22;2376;53.544;10.226;2022-08-21T15:20:40;26.80;57.00
4725;DHT22;2376;53.544;10.226;2022-08-21T15:23:08;26.80;57.30
4725;DHT22;2376;53.544;10.226;2022-08-21T15:25:40;26.70;56.60
4725;DHT22;2376;53.544;10.226;2022-08-21T15:28:08;26.70;55.70
4725;DHT22;2376;53.544;10.226;2022-08-21T15:30:36;26.60;56.30
4725;DHT22;2376;53.544;10.226;2022-08-21T15:33:08;26.70;56.20
4725;DHT22;2376;53.544;10.226;2022-08-21T15:35:37;26.70;57.30
4725;DHT22;2376;53.544;10.226;2022-08-21T15:38:04;26.70;57.80
4725;DHT22;2376;53.544;10.226;2022-08-21T15:40:31;26.80;57.60
4725;DHT22;2376;53.544;10.226;2022-08-21T15:43:01;26.70;57.80
4725;DHT22;2376;53.544;10.226;2022-08-21T15:45:28;26.70;58.10
4725;DHT22;2376;53.544;10.226;2022-08-21T15:47:56;26.60;57.10
4725;DHT22;2376;53.544;10.226;2022-08-21T15:50:24;26.60;57.20
4725;DHT22;2376;53.544;10.226;2022-08-21T15:52:52;26.50;57.00
4725;DHT22;2376;53.544;10.226;2022-08-21T15:55:20;26.50;57.70
4725;DHT22;2376;53.544;10.226;2022-08-21T15:57:49;26.50;57.80
4725;DHT22;2376;53.544;10.226;2022-08-21T16:00:20;26.40;58.30
4725;DHT22;2376;53.544;10.226;2022-08-21T16:02:50;26.30;58.90